createdAt,value
2023-11-02T00:00:10.725Z,3.30
2023-11-02T00:05:45.985Z,3.83
2023-11-02T00:10:48.256Z,2.80
2023-11-02T00:15:50.146Z,3.70
2023-11-02T00:20:55.678Z,2.40
2023-11-02T00:25:59.152Z,2.50
2023-11-02T00:31:02.122Z,2.85
2023-11-02T00:36:04.352Z,3.83
2023-11-02T00:41:07.037Z,2.17
2023-11-02T00:46:09.287Z,1.77
2023-11-02T00:51:21.889Z,10.45
2023-11-02T00:56:28.714Z,2.70
2023-11-02T01:01:30.655Z,5.35
2023-11-02T01:06:34.486Z,3.42
2023-11-02T01:11:39.168Z,4.65
2023-11-02T01:16:42.620Z,3.80
2023-11-02T01:21:45.158Z,2.20
2023-11-02T01:27:02.441Z,1.73
2023-11-02T01:32:04.772Z,3.45
2023-11-02T01:37:06.706Z,4.80
2023-11-02T01:42:40.999Z,7.47
2023-11-02T01:47:54.967Z,7.70
2023-11-02T01:53:09.087Z,3.70
2023-11-02T01:58:37.284Z,7.53
2023-11-02T02:09:20.788Z,3.08
2023-11-02T02:14:25.621Z,6.50
2023-11-02T02:19:45.645Z,5.47
2023-11-02T02:25:24.702Z,4.88
2023-11-02T02:30:47.446Z,5.32
2023-11-02T02:36:15.086Z,6.20
2023-11-02T02:41:20.809Z,5.32
2023-11-02T02:46:26.916Z,7.28
2023-11-02T02:51:30.968Z,14.75
2023-11-02T02:56:37.263Z,8.75
2023-11-02T03:01:44.638Z,6.80
2023-11-02T03:06:50.943Z,5.15
2023-11-02T03:11:59.092Z,7.95
2023-11-02T03:17:16.802Z,9.25
2023-11-02T03:22:24.373Z,5.78
2023-11-02T03:27:33.940Z,7.38
2023-11-02T03:33:00.971Z,9.30
2023-11-02T03:38:06.289Z,8.63
2023-11-02T03:43:22.448Z,10.27
2023-11-02T03:48:49.584Z,10.85
2023-11-02T03:54:44.362Z,8.57
2023-11-02T03:59:56.865Z,7.78
2023-11-02T04:05:16.612Z,7.95
2023-11-02T04:10:23.851Z,9.15
2023-11-02T04:15:26.133Z,9.60
2023-11-02T04:20:28.338Z,8.68
2023-11-02T04:25:31.477Z,7.22
2023-11-02T04:30:34.103Z,9.35
2023-11-02T04:35:37.907Z,13.10
2023-11-02T04:40:42.919Z,8.13
2023-11-02T04:45:45.105Z,10.90
2023-11-02T04:50:48.583Z,10.43
2023-11-02T04:55:50.648Z,10.43
2023-11-02T05:00:54.358Z,9.65
2023-11-02T05:05:57.104Z,11.02
2023-11-02T05:10:59.406Z,9.70
2023-11-02T05:16:01.560Z,7.50
2023-11-02T05:21:03.959Z,6.95
2023-11-02T05:26:07.350Z,7.88
2023-11-02T05:31:09.655Z,8.73
2023-11-02T05:36:11.866Z,6.13
2023-11-02T05:41:14.045Z,6.13
2023-11-02T05:46:16.185Z,6.82
2023-11-02T05:51:18.248Z,8.35
2023-11-02T05:56:20.171Z,5.35
2023-11-02T06:01:22.145Z,10.52
2023-11-02T06:06:24.232Z,6.97
2023-11-02T06:11:27.848Z,6.32
2023-11-02T06:16:30.080Z,7.80
2023-11-02T06:21:32.093Z,7.13
2023-11-02T06:26:34.351Z,8.15
2023-11-02T06:31:37.607Z,6.90
2023-11-02T06:36:40.264Z,8.05
2023-11-02T06:41:42.583Z,7.60
2023-11-02T06:46:44.974Z,5.30
2023-11-02T06:51:47.556Z,8.63
2023-11-02T06:56:49.808Z,6.82
2023-11-02T07:01:54.254Z,6.90
2023-11-02T07:06:56.744Z,6.88
2023-11-02T07:11:58.945Z,5.30
2023-11-02T07:17:01.130Z,4.57
2023-11-02T07:22:03.377Z,4.80
2023-11-02T07:27:06.132Z,6.82
2023-11-02T07:32:10.245Z,5.07
2023-11-02T07:37:12.829Z,5.25
2023-11-02T07:42:15.009Z,4.07
2023-11-02T07:47:18.823Z,4.50
2023-11-02T07:52:20.928Z,7.20
2023-11-02T07:57:23.451Z,5.13
2023-11-02T08:02:25.553Z,5.45
2023-11-02T08:07:27.701Z,7.32
2023-11-02T08:12:30.873Z,4.78
2023-11-02T08:17:35.387Z,4.25
2023-11-02T08:22:37.958Z,5.05
2023-11-02T08:27:40.279Z,7.38
2023-11-02T08:32:42.474Z,5.93
2023-11-02T08:37:45.205Z,6.10
2023-11-02T08:42:48.795Z,6.18
2023-11-02T08:47:50.928Z,6.47
2023-11-02T08:52:52.894Z,9.00
2023-11-02T08:57:55.017Z,7.55
2023-11-02T09:02:57.284Z,4.68
2023-11-02T09:07:59.474Z,7.03
2023-11-02T09:13:02.064Z,4.68
2023-11-02T09:18:04.226Z,4.50
2023-11-02T09:23:06.233Z,4.55
2023-11-02T09:28:09.461Z,6.75
2023-11-02T09:33:12.485Z,6.15
2023-11-02T09:38:15.812Z,5.40
2023-11-02T09:43:20.305Z,5.65
2023-11-02T09:48:22.410Z,5.60
2023-11-02T09:53:24.959Z,4.07
2023-11-02T09:58:28.331Z,5.97
2023-11-02T10:03:30.474Z,3.80
2023-11-02T10:08:32.834Z,3.88
2023-11-02T10:13:34.855Z,4.13
2023-11-02T10:18:37.370Z,3.28
2023-11-02T10:23:50.925Z,3.40
2023-11-02T10:28:55.764Z,4.35
2023-11-02T10:34:01.275Z,2.70
2023-11-02T10:39:03.525Z,5.40
2023-11-02T10:44:08.308Z,3.20
2023-11-02T10:49:13.016Z,3.15
2023-11-02T10:54:44.723Z,3.40
2023-11-02T10:59:48.985Z,2.60
2023-11-02T11:04:51.950Z,3.58
2023-11-02T11:09:56.259Z,4.72
2023-11-02T11:14:59.663Z,4.63
2023-11-02T11:20:01.821Z,5.95
2023-11-02T11:25:05.921Z,6.03
2023-11-02T11:30:23.354Z,3.30
2023-11-02T11:35:26.628Z,5.03
2023-11-02T11:40:31.117Z,4.35
2023-11-02T11:45:36.443Z,4.38
2023-11-02T11:50:42.738Z,4.32
2023-11-02T11:55:48.289Z,3.83
2023-11-02T12:00:50.243Z,5.00
2023-11-02T12:05:53.554Z,4.75
2023-11-02T12:11:01.246Z,4.53
2023-11-02T12:21:21.739Z,4.93
2023-11-02T12:26:28.905Z,4.60
2023-11-02T12:31:35.495Z,4.30
2023-11-02T12:36:39.688Z,4.85
2023-11-02T12:41:43.474Z,4.90
2023-11-02T12:46:49.461Z,4.78
2023-11-02T12:51:51.512Z,8.20
2023-11-02T12:56:55.928Z,4.50
2023-11-02T13:02:01.245Z,5.30
2023-11-02T13:07:21.256Z,6.43
2023-11-02T13:12:23.281Z,8.18
2023-11-02T13:17:26.122Z,9.55
2023-11-02T13:22:28.221Z,6.30
2023-11-02T13:27:30.384Z,6.13
2023-11-02T13:32:32.480Z,8.30
2023-11-02T13:37:34.997Z,9.05
2023-11-02T13:42:44.150Z,6.75
2023-11-02T13:47:49.825Z,6.18
2023-11-02T13:52:51.876Z,10.55
2023-11-02T13:57:54.225Z,6.55
2023-11-02T14:02:57.006Z,6.65
2023-11-02T14:07:59.305Z,12.38
2023-11-02T14:13:02.425Z,6.50
2023-11-02T14:18:06.551Z,9.00
2023-11-02T14:23:11.289Z,5.72
2023-11-02T14:28:13.219Z,6.10
2023-11-02T14:33:16.560Z,4.97
2023-11-02T14:38:20.788Z,4.32
2023-11-02T14:43:23.879Z,6.88
2023-11-02T14:48:25.943Z,7.47
2023-11-02T14:53:27.920Z,8.85
2023-11-02T14:58:29.887Z,9.90
2023-11-02T15:03:33.571Z,8.82
2023-11-02T15:08:36.180Z,6.43
2023-11-02T15:13:39.072Z,7.38
2023-11-02T15:18:43.125Z,7.57
2023-11-02T15:23:45.506Z,6.47
2023-11-02T15:28:48.304Z,29.88
2023-11-02T15:33:50.465Z,10.40
2023-11-02T15:38:52.637Z,7.32
2023-11-02T15:43:54.601Z,7.60
2023-11-02T15:48:56.672Z,7.60
2023-11-02T15:53:58.629Z,8.98
2023-11-02T15:59:01.483Z,9.23
2023-11-02T16:04:03.548Z,11.18
2023-11-02T16:09:05.899Z,10.77
2023-11-02T16:14:07.901Z,10.75
2023-11-02T16:19:10.045Z,10.88
2023-11-02T16:24:12.447Z,9.30
2023-11-02T16:29:14.867Z,14.05
2023-11-02T16:39:26.625Z,11.32
2023-11-02T16:44:28.961Z,13.50
2023-11-02T16:49:31.051Z,14.70
2023-11-02T16:54:33.372Z,12.85
2023-11-02T16:59:36.702Z,13.18
2023-11-02T17:04:39.848Z,21.02
2023-11-02T17:09:41.952Z,11.25
2023-11-02T17:14:44.206Z,13.60
2023-11-02T17:19:46.248Z,10.95
2023-11-02T17:24:48.469Z,11.32
2023-11-02T17:29:51.330Z,11.45
2023-11-02T17:34:53.542Z,16.20
2023-11-02T17:39:55.919Z,15.38
2023-11-02T17:44:58.746Z,14.27
2023-11-02T17:50:00.874Z,12.90
2023-11-02T17:55:03.316Z,12.98
2023-11-02T18:00:08.309Z,15.15
2023-11-02T18:05:14.526Z,13.05
2023-11-02T18:10:16.658Z,15.95
2023-11-02T18:15:18.609Z,14.15
2023-11-02T18:20:20.647Z,12.25
2023-11-02T18:25:23.163Z,12.52
2023-11-02T18:30:25.554Z,11.13
2023-11-02T18:35:27.643Z,13.32
2023-11-02T18:40:30.062Z,11.07
2023-11-02T18:45:32.114Z,9.18
2023-11-02T18:50:34.525Z,14.45
2023-11-02T18:55:37.591Z,14.65
2023-11-02T19:00:41.946Z,13.75
2023-11-02T19:05:44.922Z,12.63
2023-11-02T19:10:46.903Z,13.05
2023-11-02T19:15:49.826Z,12.02
2023-11-02T19:20:52.496Z,13.40
2023-11-02T19:25:55.205Z,12.23
2023-11-02T19:30:57.466Z,12.68
2023-11-02T19:36:02.656Z,13.15
2023-11-02T19:41:04.714Z,19.10
2023-11-02T19:46:06.663Z,14.63
2023-11-02T19:51:15.197Z,14.52
2023-11-02T19:56:17.135Z,14.55
2023-11-02T20:01:19.157Z,15.65
2023-11-02T20:06:21.037Z,15.48
2023-11-02T20:11:23.447Z,13.30
2023-11-02T20:16:25.357Z,17.70
2023-11-02T20:21:27.409Z,19.58
2023-11-02T20:26:29.690Z,16.67
2023-11-02T20:31:31.621Z,20.63
2023-11-02T20:36:33.674Z,17.58
2023-11-02T20:41:35.613Z,16.85
2023-11-02T20:46:42.134Z,16.85
2023-11-02T20:51:46.183Z,16.60
2023-11-02T20:56:48.126Z,15.15
2023-11-02T21:01:50.469Z,17.27
2023-11-02T21:06:58.713Z,16.00
2023-11-02T21:12:03.785Z,18.63
2023-11-02T21:17:06.185Z,20.50
2023-11-02T21:22:11.829Z,16.33
2023-11-02T21:27:15.384Z,16.27
2023-11-02T21:32:17.334Z,18.85
2023-11-02T21:37:19.287Z,16.80
2023-11-02T21:42:21.417Z,16.55
2023-11-02T21:47:23.587Z,16.25
2023-11-02T21:52:25.386Z,16.45
2023-11-02T21:57:27.366Z,22.83
2023-11-02T22:02:29.303Z,15.95
2023-11-02T22:07:31.346Z,15.73
2023-11-02T22:12:33.236Z,16.88
2023-11-02T22:17:35.218Z,17.98
2023-11-02T22:22:37.853Z,17.63
2023-11-02T22:27:39.773Z,14.18
2023-11-02T22:32:42.897Z,19.48
2023-11-02T22:37:44.838Z,17.00
2023-11-02T22:42:47.191Z,18.13
2023-11-02T22:47:49.371Z,18.63
2023-11-02T22:52:52.669Z,16.35
2023-11-02T22:57:55.206Z,18.75
2023-11-02T23:02:57.125Z,14.50
2023-11-02T23:07:59.191Z,17.35
2023-11-02T23:13:01.218Z,19.63
2023-11-02T23:18:03.901Z,15.57
2023-11-02T23:23:07.126Z,18.45
2023-11-02T23:28:09.209Z,16.95
2023-11-02T23:33:11.274Z,16.83
2023-11-02T23:38:13.396Z,16.13
2023-11-02T23:43:17.572Z,12.52
2023-11-02T23:48:19.764Z,12.23
2023-11-02T23:53:22.130Z,12.80
2023-11-02T23:58:24.109Z,12.23
